Kiowa, Colorado
Current Conditions -  °F | °C
As of 3:15 PM on Sunday 23 Nov 2014 (Local Time) from KMNH Reporting Station
Broken Clouds Broken Clouds  
Wind Chill: 19°   Ceiling: 3600
Heat Index: 30°   Visibility: 10mi
Dew Point: 18°   Wind: 16mph
Humidity: 60%   Direction: 10°N
Pressure: 29.78"   Gusts: 25mph
Location:  39.35°N, 104.46°W
Report Text: KMNH 232215Z AUTO 01014G22KT 10SM SCT029 BKN036 SCT046 M01/M08 A2978 RMK AO2
Loading
Personal Weather Stations






























Interactive Weather Map New forecast layout! Learn more

10-Day Weather Forecast

Advertisements
Track Severe Weather on mobile